createdAt,value
2017-11-11T00:00:35.262Z,21.4
2017-11-11T00:01:43.358Z,21.5
2017-11-11T00:02:51.435Z,21.5
2017-11-11T00:03:59.521Z,21.5
2017-11-11T00:05:07.608Z,21.4
2017-11-11T00:06:15.693Z,21.5
2017-11-11T00:07:23.781Z,21.6
2017-11-11T00:08:31.864Z,21.5
2017-11-11T00:09:39.952Z,21.5
2017-11-11T00:10:48.035Z,21.5
2017-11-11T00:11:56.129Z,21.5
2017-11-11T00:13:04.213Z,21.5
2017-11-11T00:14:12.300Z,21.6
2017-11-11T00:15:20.386Z,21.5
2017-11-11T00:16:28.470Z,21.6
2017-11-11T00:17:36.560Z,21.6
2017-11-11T00:18:44.642Z,21.5
2017-11-11T00:19:52.728Z,21.6
2017-11-11T00:21:00.816Z,21.5
2017-11-11T00:22:08.900Z,21.6
2017-11-11T00:23:16.991Z,21.7
2017-11-11T00:24:25.073Z,21.6
2017-11-11T00:25:33.160Z,21.6
2017-11-11T00:26:41.245Z,21.7
2017-11-11T00:27:49.329Z,21.6
2017-11-11T00:28:57.431Z,21.6
2017-11-11T00:30:05.511Z,21.6
2017-11-11T00:31:13.598Z,21.7
2017-11-11T00:32:21.684Z,21.6
2017-11-11T00:33:29.772Z,21.7
2017-11-11T00:34:37.865Z,21.7
2017-11-11T00:35:45.956Z,21.7
2017-11-11T00:36:54.042Z,21.7
2017-11-11T00:38:02.131Z,21.6
2017-11-11T00:39:10.216Z,21.7
2017-11-11T00:40:18.303Z,21.7
2017-11-11T00:41:26.388Z,21.7
2017-11-11T00:42:34.491Z,21.8
2017-11-11T00:43:42.560Z,21.6
2017-11-11T00:44:50.650Z,21.7
2017-11-11T00:45:58.853Z,21.7
2017-11-11T00:47:06.821Z,21.7
2017-11-11T00:48:14.906Z,21.8
2017-11-11T00:49:22.991Z,21.8
2017-11-11T00:50:31.098Z,21.7
2017-11-11T00:51:39.185Z,21.7
2017-11-11T00:52:47.271Z,21.7
2017-11-11T00:53:55.361Z,21.7
2017-11-11T00:55:03.444Z,21.8
2017-11-11T00:56:11.531Z,21.8
2017-11-11T00:57:19.644Z,21.8
2017-11-11T00:58:27.701Z,21.8
2017-11-11T00:59:35.788Z,21.8
2017-11-11T01:00:43.880Z,21.8
2017-11-11T01:01:51.962Z,21.9
2017-11-11T01:03:00.046Z,21.9
2017-11-11T01:04:08.153Z,21.9
2017-11-11T01:05:16.220Z,21.9
2017-11-11T01:06:24.397Z,21.9
2017-11-11T01:07:32.392Z,21.9
2017-11-11T01:08:40.480Z,22.0
2017-11-11T01:09:48.586Z,21.9
2017-11-11T01:10:56.650Z,21.9
2017-11-11T01:12:04.737Z,21.9
2017-11-11T01:13:12.829Z,21.9
2017-11-11T01:14:20.910Z,22.0
2017-11-11T01:15:29.014Z,22.0
2017-11-11T01:16:37.086Z,22.0
2017-11-11T01:17:45.165Z,22.0
2017-11-11T01:18:53.253Z,22.0
2017-11-11T01:20:01.740Z,22.1
2017-11-11T01:21:09.427Z,22.0
2017-11-11T01:22:17.514Z,22.0
2017-11-11T01:23:25.600Z,22.1
2017-11-11T01:24:33.690Z,22.0
2017-11-11T01:25:41.775Z,22.0
2017-11-11T01:26:49.867Z,22.1
2017-11-11T01:27:57.947Z,22.1
2017-11-11T01:29:06.036Z,22.1
2017-11-11T01:30:14.125Z,22.1
2017-11-11T01:31:22.211Z,22.1
2017-11-11T01:32:30.297Z,22.2
2017-11-11T01:33:38.384Z,22.1
2017-11-11T01:34:46.475Z,22.1
2017-11-11T01:35:54.555Z,22.0
2017-11-11T01:37:02.658Z,22.1
2017-11-11T01:38:10.727Z,22.2
2017-11-11T01:39:18.819Z,22.2
2017-11-11T01:40:26.902Z,22.1
2017-11-11T01:41:34.990Z,22.2
2017-11-11T01:42:43.075Z,22.2
2017-11-11T01:43:51.161Z,22.2
2017-11-11T01:44:59.248Z,22.1
2017-11-11T01:46:07.333Z,22.1
2017-11-11T01:47:15.419Z,22.3
2017-11-11T01:48:23.512Z,22.2
2017-11-11T01:49:31.594Z,22.2
2017-11-11T01:50:39.688Z,22.2
2017-11-11T01:51:47.772Z,22.3
2017-11-11T01:52:55.854Z,22.2
2017-11-11T01:54:03.939Z,22.2
2017-11-11T01:55:12.031Z,22.2
2017-11-11T01:56:20.113Z,22.2
2017-11-11T01:57:28.199Z,22.2
2017-11-11T01:58:36.285Z,22.2
2017-11-11T01:59:44.372Z,22.1
2017-11-11T02:00:52.460Z,22.3
2017-11-11T02:02:00.547Z,22.2
2017-11-11T02:03:08.633Z,22.3
2017-11-11T02:04:16.726Z,22.2
2017-11-11T02:05:24.817Z,22.2
2017-11-11T02:06:32.907Z,22.3
2017-11-11T02:07:40.988Z,22.2
2017-11-11T02:08:49.080Z,22.2
2017-11-11T02:09:57.184Z,22.2
2017-11-11T02:11:05.271Z,22.3
2017-11-11T02:12:13.363Z,22.3
2017-11-11T02:13:21.453Z,22.3
2017-11-11T02:14:29.544Z,22.3
2017-11-11T02:15:37.625Z,22.2
2017-11-11T02:16:45.713Z,22.3
2017-11-11T02:17:53.800Z,22.3
2017-11-11T02:19:01.907Z,22.3
2017-11-11T02:20:09.971Z,22.3
2017-11-11T02:21:18.082Z,22.2
2017-11-11T02:22:26.163Z,22.3
2017-11-11T02:23:34.264Z,22.3
2017-11-11T02:24:42.346Z,22.2
2017-11-11T02:25:50.434Z,22.3
2017-11-11T02:26:58.521Z,22.3
2017-11-11T02:28:06.610Z,22.2
2017-11-11T02:29:14.702Z,22.3
2017-11-11T02:30:22.790Z,22.3
2017-11-11T02:31:30.879Z,22.3
2017-11-11T02:32:38.965Z,22.3
2017-11-11T02:33:47.050Z,22.1
2017-11-11T02:34:55.136Z,22.2
2017-11-11T02:36:03.225Z,22.1
2017-11-11T02:37:11.311Z,22.2
2017-11-11T02:38:19.399Z,22.3
2017-11-11T02:39:27.484Z,22.3
2017-11-11T02:40:35.573Z,22.2
2017-11-11T02:41:43.659Z,22.1
2017-11-11T02:42:51.760Z,22.1
2017-11-11T02:43:59.829Z,22.3
2017-11-11T02:45:07.919Z,22.2
2017-11-11T02:46:16.001Z,22.2
2017-11-11T02:47:24.100Z,22.2
2017-11-11T02:48:32.173Z,22.3
2017-11-11T02:49:40.261Z,22.2
2017-11-11T02:50:48.360Z,22.2
2017-11-11T02:51:56.436Z,22.2
2017-11-11T02:53:04.542Z,22.2
2017-11-11T02:54:12.613Z,22.2
2017-11-11T02:55:20.698Z,22.1
2017-11-11T02:56:28.780Z,22.2
2017-11-11T02:57:36.866Z,22.2
2017-11-11T02:58:44.973Z,22.2
2017-11-11T02:59:53.059Z,22.1
2017-11-11T03:01:01.147Z,22.2
2017-11-11T03:02:09.241Z,22.1
2017-11-11T03:03:17.327Z,22.2
2017-11-11T03:04:25.413Z,22.2
2017-11-11T03:05:33.500Z,22.2
2017-11-11T03:06:41.586Z,22.2
2017-11-11T03:07:49.673Z,22.2
2017-11-11T03:08:57.763Z,22.2
2017-11-11T03:10:05.866Z,22.1
2017-11-11T03:11:13.938Z,22.1
2017-11-11T03:12:22.020Z,22.2
2017-11-11T03:13:30.106Z,22.1
2017-11-11T03:14:38.193Z,22.1
2017-11-11T03:15:46.282Z,22.1
2017-11-11T03:16:54.371Z,22.1
2017-11-11T03:18:02.460Z,22.1
2017-11-11T03:19:10.547Z,22.1
2017-11-11T03:20:18.630Z,22.1
2017-11-11T03:21:26.712Z,22.1
2017-11-11T03:22:34.800Z,22.1
2017-11-11T03:23:43.099Z,22.1
2017-11-11T03:24:51.186Z,22.1
2017-11-11T03:25:59.273Z,22.2
2017-11-11T03:27:07.360Z,22.0
2017-11-11T03:28:15.452Z,22.0
2017-11-11T03:29:23.546Z,22.1
2017-11-11T03:30:31.621Z,22.1
2017-11-11T03:31:39.707Z,22.1
2017-11-11T03:32:47.796Z,22.1
2017-11-11T03:33:55.881Z,22.1
2017-11-11T03:35:03.968Z,22.1
2017-11-11T03:36:12.142Z,22.0
2017-11-11T03:37:20.143Z,22.0
2017-11-11T03:38:28.227Z,22.0
2017-11-11T03:39:36.321Z,21.9
2017-11-11T03:40:44.408Z,22.0
2017-11-11T03:41:52.506Z,21.9
2017-11-11T03:43:00.579Z,21.9
2017-11-11T03:44:08.671Z,21.9
2017-11-11T03:45:16.753Z,21.9
2017-11-11T03:46:24.844Z,21.9
2017-11-11T03:47:32.927Z,21.9
2017-11-11T03:48:41.015Z,22.0
2017-11-11T03:49:49.099Z,21.9
2017-11-11T03:50:57.182Z,21.9
2017-11-11T03:52:05.307Z,22.0
2017-11-11T03:53:13.361Z,21.9
2017-11-11T03:54:21.447Z,21.9
2017-11-11T03:55:29.542Z,21.9
2017-11-11T03:56:37.619Z,21.9
2017-11-11T03:57:45.706Z,21.9
2017-11-11T03:58:53.797Z,21.9
2017-11-11T04:00:01.884Z,21.9
2017-11-11T04:01:09.973Z,21.9
2017-11-11T04:02:18.053Z,21.9
2017-11-11T04:03:26.140Z,21.8
2017-11-11T04:04:34.229Z,21.8
2017-11-11T04:05:42.347Z,21.8
2017-11-11T04:06:50.405Z,21.8
2017-11-11T04:07:58.488Z,21.8
2017-11-11T04:09:06.574Z,21.8
2017-11-11T04:10:14.663Z,21.8
2017-11-11T04:11:22.751Z,21.8
2017-11-11T04:12:30.836Z,21.8
2017-11-11T04:13:38.922Z,21.8
2017-11-11T04:14:47.011Z,21.8
2017-11-11T04:15:55.099Z,21.7
2017-11-11T04:17:03.186Z,21.7
2017-11-11T04:18:11.274Z,21.7
2017-11-11T04:19:19.356Z,21.8
2017-11-11T04:20:27.442Z,21.8
2017-11-11T04:21:35.533Z,21.7
2017-11-11T04:22:43.615Z,21.7
2017-11-11T04:23:51.702Z,21.8
2017-11-11T04:24:59.788Z,21.6
2017-11-11T04:26:07.878Z,21.7
2017-11-11T04:27:15.978Z,21.6
2017-11-11T04:28:24.056Z,21.7
2017-11-11T04:29:32.134Z,21.7
2017-11-11T04:30:40.222Z,21.7
2017-11-11T04:31:48.312Z,21.6
2017-11-11T04:32:56.394Z,21.6
2017-11-11T04:34:04.480Z,21.6
2017-11-11T04:35:12.569Z,21.6
2017-11-11T04:36:20.655Z,21.8
2017-11-11T04:37:28.739Z,21.6
2017-11-11T04:38:36.825Z,21.6
2017-11-11T04:39:44.911Z,21.8
2017-11-11T04:40:53.026Z,21.7
2017-11-11T04:42:01.086Z,21.8
2017-11-11T04:43:09.177Z,21.6
2017-11-11T04:44:17.272Z,21.6
2017-11-11T04:45:25.359Z,21.6
2017-11-11T04:46:33.447Z,21.6
2017-11-11T04:47:41.534Z,21.6
2017-11-11T04:48:49.624Z,21.6
2017-11-11T04:49:57.708Z,21.6
2017-11-11T04:51:05.799Z,21.6
2017-11-11T04:52:13.880Z,21.6
2017-11-11T04:53:21.975Z,21.6
2017-11-11T04:54:30.080Z,21.6
2017-11-11T04:55:38.172Z,21.5
2017-11-11T04:56:46.251Z,21.5
2017-11-11T04:57:54.335Z,21.6
2017-11-11T04:59:02.423Z,21.5
2017-11-11T05:00:10.507Z,21.5
2017-11-11T05:01:18.597Z,21.5
2017-11-11T05:02:26.688Z,21.6
2017-11-11T05:03:34.776Z,21.5
2017-11-11T05:04:42.856Z,21.5
2017-11-11T05:05:50.944Z,21.5
2017-11-11T05:06:59.028Z,21.4
2017-11-11T05:08:07.114Z,21.4
2017-11-11T05:09:15.201Z,21.4
2017-11-11T05:10:23.289Z,21.4
2017-11-11T05:11:31.375Z,21.5
2017-11-11T05:12:39.461Z,21.4
2017-11-11T05:13:47.548Z,21.4
2017-11-11T05:14:55.635Z,21.4
2017-11-11T05:16:03.747Z,21.4
2017-11-11T05:17:11.804Z,21.3
2017-11-11T05:18:19.888Z,21.3
2017-11-11T05:19:27.983Z,21.3
2017-11-11T05:20:36.062Z,21.3
2017-11-11T05:21:44.156Z,21.4
2017-11-11T05:22:52.236Z,21.3
2017-11-11T05:24:00.324Z,21.3
2017-11-11T05:25:08.409Z,21.3
2017-11-11T05:26:16.500Z,21.3
2017-11-11T05:27:24.579Z,21.3
2017-11-11T05:28:32.667Z,21.2
2017-11-11T05:29:40.755Z,21.3
2017-11-11T05:30:48.844Z,21.2
2017-11-11T05:31:56.922Z,21.3
2017-11-11T05:33:05.011Z,21.2
2017-11-11T05:34:13.095Z,21.2
2017-11-11T05:35:21.182Z,21.2
2017-11-11T05:36:29.975Z,21.1
2017-11-11T05:37:38.062Z,21.1
2017-11-11T05:38:46.250Z,21.2
2017-11-11T05:39:54.243Z,21.1
2017-11-11T05:41:02.320Z,21.1
2017-11-11T05:42:10.407Z,21.2
2017-11-11T05:43:18.491Z,21.2
2017-11-11T05:44:26.578Z,21.1
2017-11-11T05:45:34.664Z,21.2
2017-11-11T05:46:42.751Z,21.1
2017-11-11T05:47:50.838Z,21.0
2017-11-11T05:48:58.944Z,21.0
2017-11-11T05:50:07.036Z,21.1
2017-11-11T05:51:15.117Z,21.0
2017-11-11T05:52:23.201Z,21.1
2017-11-11T05:53:31.289Z,21.1
2017-11-11T05:54:39.377Z,21.1
2017-11-11T05:55:47.982Z,21.0
2017-11-11T05:56:55.800Z,21.1
2017-11-11T05:58:03.631Z,21.1
2017-11-11T05:59:11.720Z,21.1
2017-11-11T06:00:19.803Z,21.0
2017-11-11T06:01:27.890Z,21.0
2017-11-11T06:02:35.979Z,21.0
2017-11-11T06:03:44.212Z,21.0
2017-11-11T06:04:52.301Z,21.1
2017-11-11T06:06:01.009Z,21.1
2017-11-11T06:07:08.473Z,21.0
2017-11-11T06:08:16.567Z,21.0
2017-11-11T06:09:24.644Z,21.0
2017-11-11T06:10:32.952Z,21.0
2017-11-11T06:11:41.421Z,21.0
2017-11-11T06:12:48.945Z,21.1
2017-11-11T06:13:56.995Z,21.0
2017-11-11T06:15:05.187Z,20.9
2017-11-11T06:16:13.169Z,21.0
2017-11-11T06:17:21.358Z,21.1
2017-11-11T06:18:29.444Z,21.0
2017-11-11T06:19:37.529Z,20.9
2017-11-11T06:20:45.617Z,20.9
2017-11-11T06:21:53.705Z,21.0
2017-11-11T06:23:01.790Z,20.9
2017-11-11T06:24:09.875Z,20.9
2017-11-11T06:25:17.958Z,21.0
2017-11-11T06:26:26.045Z,20.9
2017-11-11T06:27:34.636Z,20.9
2017-11-11T06:28:42.715Z,21.0
2017-11-11T06:29:50.943Z,20.9
2017-11-11T06:30:58.451Z,20.9
2017-11-11T06:32:06.939Z,20.9
2017-11-11T06:33:14.563Z,21.0
2017-11-11T06:34:22.652Z,20.9
2017-11-11T06:35:30.730Z,20.9
2017-11-11T06:36:38.865Z,20.9
2017-11-11T06:37:46.904Z,20.9
2017-11-11T06:38:56.102Z,20.9
2017-11-11T06:40:03.334Z,20.9
2017-11-11T06:41:12.764Z,20.9
2017-11-11T06:42:20.962Z,20.9
2017-11-11T06:43:27.332Z,20.9
2017-11-11T06:44:35.418Z,20.9
2017-11-11T06:45:43.526Z,20.9
2017-11-11T06:46:51.613Z,20.9
2017-11-11T06:47:59.994Z,20.9
2017-11-11T06:49:07.803Z,20.9
2017-11-11T06:50:15.888Z,20.9
2017-11-11T06:51:23.976Z,20.9
2017-11-11T06:52:32.140Z,20.9
2017-11-11T06:53:40.147Z,20.9
2017-11-11T06:54:48.229Z,20.9
2017-11-11T06:55:56.333Z,20.9
2017-11-11T06:57:04.466Z,20.9
2017-11-11T06:58:12.497Z,20.9
2017-11-11T06:59:21.209Z,20.9
2017-11-11T07:00:29.295Z,20.9
2017-11-11T07:01:37.380Z,20.9
2017-11-11T07:02:45.468Z,20.9
2017-11-11T07:03:53.551Z,20.9
2017-11-11T07:05:01.642Z,20.9
2017-11-11T07:06:09.741Z,20.9
2017-11-11T07:07:17.809Z,20.9
2017-11-11T07:08:25.895Z,20.9
2017-11-11T07:09:34.490Z,20.9
2017-11-11T07:10:42.079Z,20.9
2017-11-11T07:11:50.325Z,20.9
2017-11-11T07:12:58.248Z,20.9
2017-11-11T07:14:06.822Z,20.9
2017-11-11T07:15:14.418Z,20.9
2017-11-11T07:16:22.526Z,20.9
2017-11-11T07:17:30.614Z,20.9
2017-11-11T07:18:38.706Z,20.9
2017-11-11T07:19:46.773Z,20.9
2017-11-11T07:20:54.857Z,20.9
2017-11-11T07:22:02.963Z,20.9
2017-11-11T07:23:11.449Z,20.9
2017-11-11T07:24:19.113Z,20.9
2017-11-11T07:25:27.199Z,20.9
2017-11-11T07:26:35.285Z,20.9
2017-11-11T07:27:43.552Z,20.9
2017-11-11T07:28:51.456Z,20.9
2017-11-11T07:29:59.559Z,20.9
2017-11-11T07:31:07.629Z,20.9
2017-11-11T07:32:15.722Z,21.0
2017-11-11T07:33:23.810Z,20.9
2017-11-11T07:34:31.897Z,20.9
2017-11-11T07:35:39.985Z,20.9
2017-11-11T07:36:48.070Z,21.0
2017-11-11T07:37:56.153Z,20.9
2017-11-11T07:39:04.245Z,20.9
2017-11-11T07:40:12.330Z,20.9
2017-11-11T07:41:20.414Z,20.9
2017-11-11T07:42:28.507Z,20.9
2017-11-11T07:43:36.587Z,20.9
2017-11-11T07:44:44.675Z,20.9
2017-11-11T07:45:52.760Z,20.9
2017-11-11T07:47:00.856Z,20.9
2017-11-11T07:48:08.929Z,20.9
2017-11-11T07:49:17.019Z,20.9
2017-11-11T07:50:25.165Z,20.9
2017-11-11T07:51:33.186Z,21.0
2017-11-11T07:52:41.416Z,20.9
2017-11-11T07:53:49.359Z,20.9
2017-11-11T07:54:57.446Z,20.9
2017-11-11T07:56:05.532Z,21.0
2017-11-11T07:57:13.624Z,20.9
2017-11-11T07:58:21.727Z,20.9
2017-11-11T07:59:29.797Z,20.9
2017-11-11T08:00:37.883Z,21.0
2017-11-11T08:01:45.970Z,20.9
2017-11-11T08:02:54.054Z,20.9
2017-11-11T08:04:02.142Z,20.9
2017-11-11T08:05:10.225Z,21.0
2017-11-11T08:06:18.312Z,21.0
2017-11-11T08:07:26.397Z,21.0
2017-11-11T08:08:34.483Z,21.0
2017-11-11T08:09:42.576Z,20.9
2017-11-11T08:10:50.665Z,21.0
2017-11-11T08:11:58.747Z,20.9
2017-11-11T08:13:06.908Z,21.1
2017-11-11T08:14:14.913Z,20.9
2017-11-11T08:15:23.064Z,21.0
2017-11-11T08:16:31.131Z,20.9
2017-11-11T08:17:39.211Z,21.0
2017-11-11T08:18:47.297Z,20.9
2017-11-11T08:19:55.384Z,21.0
2017-11-11T08:21:03.469Z,21.0
2017-11-11T08:22:11.554Z,21.0
2017-11-11T08:23:19.647Z,21.0
2017-11-11T08:24:27.731Z,21.0
2017-11-11T08:25:35.813Z,21.0
2017-11-11T08:26:43.897Z,20.9
2017-11-11T08:27:51.981Z,21.0
2017-11-11T08:29:00.067Z,21.0
2017-11-11T08:30:08.163Z,21.0
2017-11-11T08:31:16.246Z,21.0
2017-11-11T08:32:24.588Z,21.1
2017-11-11T08:33:32.412Z,21.1
2017-11-11T08:34:40.499Z,21.0
2017-11-11T08:35:48.583Z,21.1
2017-11-11T08:36:56.669Z,21.0
2017-11-11T08:38:04.756Z,21.0
2017-11-11T08:39:12.868Z,21.1
2017-11-11T08:40:21.212Z,21.0
2017-11-11T08:41:29.381Z,21.1
2017-11-11T08:42:37.141Z,21.1
2017-11-11T08:43:45.186Z,21.1
2017-11-11T08:44:53.338Z,21.1
2017-11-11T08:46:01.356Z,21.1
2017-11-11T08:47:09.450Z,21.0
2017-11-11T08:48:17.537Z,21.0
2017-11-11T08:49:25.616Z,21.0
2017-11-11T08:50:34.231Z,21.2
2017-11-11T08:51:42.079Z,21.1
2017-11-11T08:52:49.951Z,21.1
2017-11-11T08:53:57.962Z,21.2
2017-11-11T08:55:06.386Z,21.2
2017-11-11T08:56:14.130Z,21.2
2017-11-11T08:57:22.218Z,21.1
2017-11-11T08:58:30.312Z,21.2
2017-11-11T08:59:38.457Z,21.1
2017-11-11T09:00:46.487Z,21.2
2017-11-11T09:01:54.606Z,21.3
2017-11-11T09:03:02.697Z,21.3
2017-11-11T09:04:10.776Z,21.2
2017-11-11T09:05:18.864Z,21.3
2017-11-11T09:06:26.947Z,21.2
2017-11-11T09:07:35.043Z,21.3
2017-11-11T09:08:43.125Z,21.3
2017-11-11T09:09:51.206Z,21.3
2017-11-11T09:10:59.298Z,21.3
2017-11-11T09:12:07.375Z,21.3
2017-11-11T09:13:15.462Z,21.3
2017-11-11T09:14:23.549Z,21.3
2017-11-11T09:15:31.639Z,21.4
2017-11-11T09:16:39.719Z,21.3
2017-11-11T09:17:47.808Z,21.4
2017-11-11T09:18:55.890Z,21.4
2017-11-11T09:20:03.980Z,21.4
2017-11-11T09:21:12.064Z,21.5
2017-11-11T09:22:20.161Z,21.4
2017-11-11T09:23:28.452Z,21.4
2017-11-11T09:24:36.535Z,21.4
2017-11-11T09:25:44.624Z,21.5
2017-11-11T09:26:52.708Z,21.5
2017-11-11T09:28:00.794Z,21.5
2017-11-11T09:29:08.882Z,21.5
2017-11-11T09:30:16.974Z,21.6
2017-11-11T09:31:25.075Z,21.5
2017-11-11T09:32:33.140Z,21.5
2017-11-11T09:33:41.813Z,21.5
2017-11-11T09:34:49.685Z,21.6
2017-11-11T09:35:57.769Z,21.6
2017-11-11T09:37:05.854Z,21.7
2017-11-11T09:38:13.942Z,21.6
2017-11-11T09:39:22.027Z,21.7
2017-11-11T09:40:30.115Z,21.5
2017-11-11T09:41:38.201Z,21.6
2017-11-11T09:42:46.287Z,21.7
2017-11-11T09:43:54.376Z,21.7
2017-11-11T09:45:02.459Z,21.7
2017-11-11T09:46:10.555Z,21.6
2017-11-11T09:47:18.630Z,21.7
2017-11-11T09:48:26.717Z,21.7
2017-11-11T09:49:34.805Z,21.6
2017-11-11T09:50:42.889Z,21.7
2017-11-11T09:51:50.979Z,21.7
2017-11-11T09:52:59.464Z,21.7
2017-11-11T09:54:07.593Z,21.8
2017-11-11T09:55:15.236Z,21.8
2017-11-11T09:56:23.319Z,21.7
2017-11-11T09:57:31.427Z,21.8
2017-11-11T09:58:39.567Z,21.8
2017-11-11T09:59:47.587Z,21.8
2017-11-11T10:00:56.026Z,21.9
2017-11-11T10:02:04.309Z,21.9
2017-11-11T10:03:12.898Z,21.9
2017-11-11T10:04:20.683Z,21.9
2017-11-11T10:05:28.565Z,21.9
2017-11-11T10:06:36.652Z,21.9
2017-11-11T10:07:44.746Z,22.0
2017-11-11T10:08:52.826Z,22.0
2017-11-11T10:10:01.153Z,22.0
2017-11-11T10:11:09.008Z,22.0
2017-11-11T10:12:17.752Z,21.9
2017-11-11T10:13:25.654Z,22.0
2017-11-11T10:14:33.727Z,22.0
2017-11-11T10:15:42.465Z,22.0
2017-11-11T10:16:49.897Z,22.1
2017-11-11T10:17:57.986Z,22.1
2017-11-11T10:19:06.071Z,22.1
2017-11-11T10:20:15.124Z,22.1
2017-11-11T10:21:22.771Z,22.1
2017-11-11T10:22:30.330Z,22.1
2017-11-11T10:23:38.417Z,22.1
2017-11-11T10:24:46.523Z,22.1
2017-11-11T10:25:54.590Z,22.2
2017-11-11T10:27:02.750Z,22.2
2017-11-11T10:28:10.763Z,22.2
2017-11-11T10:29:18.851Z,22.2
2017-11-11T10:30:27.085Z,22.2
2017-11-11T10:31:35.024Z,22.2
2017-11-11T10:32:43.121Z,22.2
2017-11-11T10:33:51.203Z,22.3
2017-11-11T10:34:59.604Z,22.2
2017-11-11T10:36:07.692Z,22.3
2017-11-11T10:37:15.779Z,22.3
2017-11-11T10:38:23.884Z,22.2
2017-11-11T10:39:31.962Z,22.2
2017-11-11T10:40:40.077Z,22.3
2017-11-11T10:41:48.166Z,22.3
2017-11-11T10:42:56.258Z,22.3
2017-11-11T10:44:04.346Z,22.3
2017-11-11T10:45:12.432Z,22.3
2017-11-11T10:46:20.517Z,22.3
2017-11-11T10:47:28.623Z,22.3
2017-11-11T10:48:36.691Z,22.4
2017-11-11T10:49:44.775Z,22.4
2017-11-11T10:50:52.878Z,22.4
2017-11-11T10:52:00.950Z,22.4
2017-11-11T10:53:09.039Z,22.4
2017-11-11T10:54:17.128Z,22.4
2017-11-11T10:55:25.217Z,22.3
2017-11-11T10:56:33.296Z,22.5
2017-11-11T10:57:41.593Z,22.4
2017-11-11T10:58:50.373Z,22.5
2017-11-11T10:59:57.765Z,22.5
2017-11-11T11:01:05.956Z,22.4
2017-11-11T11:02:13.942Z,22.6
2017-11-11T11:03:22.066Z,22.5
2017-11-11T11:04:30.111Z,22.5
2017-11-11T11:05:38.196Z,22.5
2017-11-11T11:06:46.285Z,22.5
2017-11-11T11:07:54.375Z,22.4
2017-11-11T11:09:02.453Z,22.5
2017-11-11T11:10:10.550Z,22.5
2017-11-11T11:11:18.640Z,22.5
2017-11-11T11:12:26.723Z,22.5
2017-11-11T11:13:34.817Z,22.5
2017-11-11T11:14:42.896Z,22.5
2017-11-11T11:15:50.986Z,22.5
2017-11-11T11:16:59.090Z,22.5
2017-11-11T11:18:07.167Z,22.5
2017-11-11T11:19:15.263Z,22.6
2017-11-11T11:20:23.349Z,22.6
2017-11-11T11:21:31.440Z,22.5
2017-11-11T11:22:39.523Z,22.6
2017-11-11T11:23:47.613Z,22.5
2017-11-11T11:24:55.695Z,22.6
2017-11-11T11:26:03.781Z,22.5
2017-11-11T11:27:11.868Z,22.5
2017-11-11T11:28:19.955Z,22.5
2017-11-11T11:29:28.043Z,22.5
2017-11-11T11:30:36.146Z,22.6
2017-11-11T11:31:44.232Z,22.5
2017-11-11T11:32:52.305Z,22.5
2017-11-11T11:34:00.390Z,22.5
2017-11-11T11:35:08.474Z,22.6
2017-11-11T11:36:16.563Z,22.6
2017-11-11T11:37:24.654Z,22.6
2017-11-11T11:38:32.740Z,22.6
2017-11-11T11:39:40.824Z,22.6
2017-11-11T11:40:48.929Z,22.6
2017-11-11T11:41:57.011Z,22.6
2017-11-11T11:43:05.085Z,22.6
2017-11-11T11:44:13.175Z,22.6
2017-11-11T11:45:21.257Z,22.6
2017-11-11T11:46:29.370Z,22.6
2017-11-11T11:47:37.431Z,22.6
2017-11-11T11:48:45.519Z,22.6
2017-11-11T11:49:53.607Z,22.6
2017-11-11T11:51:01.694Z,22.6
2017-11-11T11:52:09.783Z,22.6
2017-11-11T11:53:17.871Z,22.6
2017-11-11T11:54:25.959Z,22.6
2017-11-11T11:55:34.047Z,22.6
2017-11-11T11:56:42.135Z,22.5
2017-11-11T11:57:50.225Z,22.6
2017-11-11T11:58:58.308Z,22.6
2017-11-11T12:00:06.396Z,22.6
2017-11-11T12:01:14.480Z,22.6
2017-11-11T12:02:22.576Z,22.5
2017-11-11T12:03:30.653Z,22.6
2017-11-11T12:04:38.741Z,22.6
2017-11-11T12:05:46.828Z,22.6
2017-11-11T12:06:54.916Z,22.6
2017-11-11T12:08:03.004Z,22.6
2017-11-11T12:09:11.090Z,22.5
2017-11-11T12:10:19.176Z,22.6
2017-11-11T12:11:27.262Z,22.6
2017-11-11T12:12:35.348Z,22.7
2017-11-11T12:13:43.434Z,22.6
2017-11-11T12:14:51.522Z,22.6
2017-11-11T12:15:59.609Z,22.6
2017-11-11T12:17:07.697Z,22.5
2017-11-11T12:18:15.783Z,22.6
2017-11-11T12:19:23.871Z,22.6
2017-11-11T12:20:31.957Z,22.6
2017-11-11T12:21:40.043Z,22.6
2017-11-11T12:22:48.129Z,22.6
2017-11-11T12:23:56.222Z,22.6
2017-11-11T12:25:04.304Z,22.6
2017-11-11T12:26:12.389Z,22.6
2017-11-11T12:27:20.496Z,22.6
2017-11-11T12:28:28.569Z,22.6
2017-11-11T12:29:36.652Z,22.6
2017-11-11T12:30:44.971Z,22.6
2017-11-11T12:31:52.826Z,22.6
2017-11-11T12:33:00.913Z,22.6
2017-11-11T12:34:09.000Z,22.6
2017-11-11T12:35:17.086Z,22.6
2017-11-11T12:36:25.175Z,22.6
2017-11-11T12:37:33.262Z,22.6
2017-11-11T12:38:41.348Z,22.6
2017-11-11T12:39:49.438Z,22.7
2017-11-11T12:40:57.774Z,22.6
2017-11-11T12:42:06.218Z,22.6
2017-11-11T12:43:13.787Z,22.6
2017-11-11T12:44:21.924Z,22.7
2017-11-11T12:45:29.873Z,22.6
2017-11-11T12:46:37.979Z,22.7
2017-11-11T12:47:46.052Z,22.6
2017-11-11T12:48:54.138Z,22.6
2017-11-11T12:50:02.223Z,22.7
2017-11-11T12:51:10.310Z,22.6
2017-11-11T12:52:18.397Z,22.7
2017-11-11T12:53:26.485Z,22.8
2017-11-11T12:54:34.571Z,22.7
2017-11-11T12:55:42.663Z,22.8
2017-11-11T12:56:50.755Z,22.8
2017-11-11T12:57:58.836Z,22.7
2017-11-11T12:59:06.936Z,22.8
2017-11-11T13:00:15.024Z,22.8
2017-11-11T13:01:23.111Z,22.9
2017-11-11T13:02:31.201Z,22.8
2017-11-11T13:03:39.284Z,22.8
2017-11-11T13:04:47.373Z,22.8
2017-11-11T13:05:55.458Z,22.8
2017-11-11T13:07:03.543Z,22.8
2017-11-11T13:08:11.657Z,22.8
2017-11-11T13:09:19.737Z,22.9
2017-11-11T13:10:27.824Z,22.9
2017-11-11T13:11:35.911Z,22.8
2017-11-11T13:12:43.995Z,22.8
2017-11-11T13:13:52.389Z,22.9
2017-11-11T13:15:00.475Z,22.8
2017-11-11T13:16:08.565Z,22.9
2017-11-11T13:17:16.647Z,22.9
2017-11-11T13:18:24.737Z,22.9
2017-11-11T13:19:32.822Z,22.9
2017-11-11T13:20:40.906Z,23.0
2017-11-11T13:21:48.993Z,22.9
2017-11-11T13:22:57.079Z,23.0
2017-11-11T13:24:05.166Z,23.0
2017-11-11T13:25:13.254Z,23.0
2017-11-11T13:26:21.354Z,22.9
2017-11-11T13:27:29.429Z,23.0
2017-11-11T13:28:37.516Z,23.0
2017-11-11T13:29:45.606Z,23.0
2017-11-11T13:30:53.690Z,23.0
2017-11-11T13:32:01.775Z,23.1
2017-11-11T13:33:09.861Z,23.1
2017-11-11T13:34:17.951Z,23.1
2017-11-11T13:35:26.035Z,23.1
2017-11-11T13:36:34.123Z,23.1
2017-11-11T13:37:42.214Z,23.1
2017-11-11T13:38:50.300Z,23.1
2017-11-11T13:39:58.387Z,23.1
2017-11-11T13:41:06.478Z,23.1
2017-11-11T13:42:14.562Z,23.2
2017-11-11T13:43:22.653Z,23.2
2017-11-11T13:44:30.736Z,23.1
2017-11-11T13:45:38.822Z,23.2
2017-11-11T13:46:46.911Z,23.2
2017-11-11T13:47:54.997Z,23.2
2017-11-11T13:49:03.085Z,23.2
2017-11-11T13:50:11.172Z,23.2
2017-11-11T13:51:19.258Z,23.2
2017-11-11T13:52:27.346Z,23.2
2017-11-11T13:53:35.432Z,23.2
2017-11-11T13:54:43.520Z,23.2
2017-11-11T13:55:51.711Z,23.3
2017-11-11T13:56:59.802Z,23.3
2017-11-11T13:58:07.898Z,23.3
2017-11-11T13:59:15.980Z,23.4
2017-11-11T14:00:24.482Z,23.3
2017-11-11T14:01:32.150Z,23.4
2017-11-11T14:02:40.248Z,23.3
2017-11-11T14:03:48.325Z,23.3
2017-11-11T14:04:56.505Z,23.4
2017-11-11T14:06:04.500Z,23.3
2017-11-11T14:07:12.590Z,23.4
2017-11-11T14:08:20.683Z,23.3
2017-11-11T14:09:28.761Z,23.4
2017-11-11T14:10:36.955Z,23.4
2017-11-11T14:11:45.518Z,23.2
2017-11-11T14:12:53.025Z,23.4
2017-11-11T14:14:01.113Z,23.4
2017-11-11T14:15:09.218Z,23.4
2017-11-11T14:16:17.284Z,23.4
2017-11-11T14:17:25.372Z,23.4
2017-11-11T14:18:33.462Z,23.5
2017-11-11T14:19:41.566Z,23.5
2017-11-11T14:20:49.654Z,23.5
2017-11-11T14:21:57.742Z,23.5
2017-11-11T14:23:05.831Z,23.4
2017-11-11T14:24:13.922Z,23.5
2017-11-11T14:25:22.018Z,23.5
2017-11-11T14:26:30.090Z,23.4
2017-11-11T14:27:38.180Z,23.5
2017-11-11T14:28:46.267Z,23.5
2017-11-11T14:29:54.370Z,23.5
2017-11-11T14:31:02.441Z,23.5
2017-11-11T14:32:10.526Z,23.6
2017-11-11T14:33:18.617Z,23.5
2017-11-11T14:34:26.704Z,23.5
2017-11-11T14:35:34.792Z,23.5
2017-11-11T14:36:42.880Z,23.6
2017-11-11T14:37:50.971Z,23.6
2017-11-11T14:38:59.055Z,23.7
2017-11-11T14:40:07.143Z,23.5
2017-11-11T14:41:15.228Z,23.5
2017-11-11T14:42:23.320Z,23.6
2017-11-11T14:43:31.407Z,23.6
2017-11-11T14:44:39.509Z,23.6
2017-11-11T14:45:47.584Z,23.6
2017-11-11T14:46:55.707Z,23.6
2017-11-11T14:48:03.759Z,23.6
2017-11-11T14:49:11.844Z,23.7
2017-11-11T14:50:19.932Z,23.6
2017-11-11T14:51:28.023Z,23.7
2017-11-11T14:52:36.109Z,23.7
2017-11-11T14:53:44.195Z,23.6
2017-11-11T14:54:52.290Z,23.6
2017-11-11T14:56:00.430Z,23.6
2017-11-11T14:57:08.528Z,23.6
2017-11-11T14:58:16.599Z,23.7
2017-11-11T14:59:24.688Z,23.6
2017-11-11T15:00:32.776Z,23.6
2017-11-11T15:01:40.879Z,23.6
2017-11-11T15:02:48.954Z,23.7
2017-11-11T15:03:57.041Z,23.6
2017-11-11T15:05:05.136Z,23.6
2017-11-11T15:06:13.285Z,23.6